Time;durP1;ratioP1;P1;durP2;ratioP2;P2;SDS_P1;SDS_P2;PMS_P1;PMS_P2;Temp;Humidity;BMP_temperature;BMP_pressure;BME280_temperature;BME280_humidity;BME280_pressure;Samples;Min_cycle;Max_cycle;Signal;HPM_P1;HPM_P2
2023/07/23 00:01:39;;;;;;;12.32;8.55;;;;;;;15.26;92.32;100857.47;5021803;28;20049;-63
2023/07/23 00:04:05;;;;;;;13.95;8.50;;;;;;;15.23;92.38;100858.69;5019855;28;20025;-63
2023/07/23 00:06:30;;;;;;;12.80;8.57;;;;;;;15.24;92.15;100856.84;5025616;28;20025;-62
2023/07/23 00:08:55;;;;;;;15.10;8.68;;;;;;;15.25;92.17;100850.47;5022958;28;20060;-63
2023/07/23 00:11:21;;;;;;;12.55;8.82;;;;;;;15.25;92.22;100853.16;5021828;28;20117;-63
2023/07/23 00:13:46;;;;;;;12.85;8.45;;;;;;;15.24;91.91;100846.97;5020773;28;20079;-63
2023/07/23 00:16:11;;;;;;;12.30;8.10;;;;;;;15.25;92.06;100842.44;5017646;28;20041;-62
2023/07/23 00:18:36;;;;;;;13.43;8.75;;;;;;;15.25;92.10;100835.25;5019509;28;20026;-63
2023/07/23 00:21:02;;;;;;;11.70;8.38;;;;;;;15.27;91.97;100840.41;5024228;28;20082;-63
2023/07/23 00:23:28;;;;;;;12.85;8.45;;;;;;;15.25;92.15;100829.91;5022033;28;20032;-62
2023/07/23 00:25:54;;;;;;;12.57;8.55;;;;;;;15.27;91.98;100829.69;5013514;28;20037;-63
2023/07/23 00:28:19;;;;;;;12.02;8.45;;;;;;;15.25;92.14;100816.50;5019091;28;20482;-63
2023/07/23 00:30:45;;;;;;;15.80;9.00;;;;;;;15.27;91.96;100816.31;5018318;28;20033;-63
2023/07/23 00:33:10;;;;;;;12.90;8.85;;;;;;;15.26;91.90;100814.66;5019928;28;20106;-63
2023/07/23 00:35:35;;;;;;;11.68;9.23;;;;;;;15.25;92.17;100811.16;5022900;28;20116;-63
2023/07/23 00:38:00;;;;;;;13.70;8.95;;;;;;;15.25;92.25;100808.50;5019042;28;20021;-62
2023/07/23 00:40:26;;;;;;;15.23;8.93;;;;;;;15.25;92.51;100803.13;5023111;28;20049;-64
2023/07/23 00:42:51;;;;;;;14.02;9.18;;;;;;;15.24;92.64;100792.63;5019931;28;20025;-63
2023/07/23 00:45:16;;;;;;;15.57;9.32;;;;;;;15.15;92.56;100778.63;5020366;28;20025;-63
2023/07/23 00:47:42;;;;;;;14.02;8.82;;;;;;;15.23;92.68;100785.63;5017130;28;20037;-63
2023/07/23 00:50:09;;;;;;;12.52;8.93;;;;;;;15.22;92.73;100787.50;5016875;28;20376;-63
2023/07/23 00:52:35;;;;;;;13.75;8.50;;;;;;;15.23;92.94;100781.13;5019449;28;20452;-63
2023/07/23 00:55:02;;;;;;;17.05;8.77;;;;;;;15.23;92.87;100774.94;5015706;28;20049;-62
2023/07/23 00:57:27;;;;;;;13.55;9.13;;;;;;;15.25;93.03;100776.38;5018783;28;20601;-62
2023/07/23 00:59:56;;;;;;;15.43;9.20;;;;;;;15.24;93.27;100769.38;5020327;28;20033;-62
2023/07/23 01:02:21;;;;;;;16.17;9.23;;;;;;;15.26;92.99;100761.16;5022368;28;20041;-62
2023/07/23 01:04:46;;;;;;;14.68;9.02;;;;;;;15.26;93.27;100763.84;5017882;28;20073;-63
2023/07/23 01:07:12;;;;;;;14.05;9.20;;;;;;;15.26;93.27;100755.81;5020552;28;20056;-62
2023/07/23 01:09:37;;;;;;;12.15;8.75;;;;;;;15.25;93.18;100749.63;5022637;28;20031;-63
2023/07/23 01:12:03;;;;;;;15.07;8.85;;;;;;;15.23;93.22;100743.66;5022179;28;20667;-63
2023/07/23 01:14:29;;;;;;;14.93;8.70;;;;;;;15.24;93.07;100739.13;5024135;28;20021;-63
2023/07/23 01:16:57;;;;;;;12.77;8.27;;;;;;;15.24;93.26;100749.84;5021594;28;20120;-62
2023/07/23 01:19:26;;;;;;;11.57;8.40;;;;;;;15.24;93.26;100733.78;5023663;28;20033;-63
2023/07/23 01:21:55;;;;;;;12.90;7.93;;;;;;;15.24;93.38;100739.97;5019535;28;20052;-63
2023/07/23 01:24:20;;;;;;;12.25;7.85;;;;;;;15.24;93.09;100731.94;5015687;28;20120;-63
2023/07/23 01:26:45;;;;;;;10.68;7.72;;;;;;;15.25;93.19;100722.88;5018505;28;20554;-63
2023/07/23 01:29:10;;;;;;;14.93;7.63;;;;;;;15.25;93.30;100722.06;5016905;28;20028;-63
2023/07/23 01:31:36;;;;;;;11.32;7.60;;;;;;;15.26;92.94;100715.69;5020901;28;20071;-63
2023/07/23 01:34:04;;;;;;;10.75;7.45;;;;;;;15.26;92.83;100711.16;5018253;28;20026;-62
2023/07/23 01:36:29;;;;;;;12.77;7.47;;;;;;;15.25;92.91;100708.69;5021440;28;20047;-63
2023/07/23 01:38:55;;;;;;;9.45;6.80;;;;;;;15.23;92.60;100700.03;5013304;28;20017;-62
2023/07/23 01:41:20;;;;;;;12.07;7.53;;;;;;;15.26;92.78;100696.94;5023018;28;20033;-63
2023/07/23 01:43:45;;;;;;;11.48;7.35;;;;;;;15.24;92.65;100697.16;5018248;28;20021;-63
2023/07/23 01:46:11;;;;;;;13.98;8.10;;;;;;;15.26;92.76;100694.28;5017433;28;20086;-63
2023/07/23 01:48:36;;;;;;;13.82;7.40;;;;;;;15.26;92.44;100695.09;5019532;28;20028;-63
2023/07/23 01:51:01;;;;;;;11.35;7.10;;;;;;;15.28;92.43;100684.19;5018881;28;20151;-63
2023/07/23 01:53:28;;;;;;;12.68;7.28;;;;;;;15.26;92.36;100683.56;5020306;28;20017;-63
2023/07/23 01:55:56;;;;;;;9.90;6.97;;;;;;;15.25;92.18;100680.06;5022174;28;20029;-62
2023/07/23 01:58:22;;;;;;;14.18;6.93;;;;;;;15.26;92.09;100672.88;5020691;28;20056;-62
2023/07/23 02:00:47;;;;;;;9.20;7.07;;;;;;;15.27;92.12;100678.00;5012239;28;20476;-63
2023/07/23 02:03:12;;;;;;;13.00;6.85;;;;;;;15.28;92.12;100668.13;5018890;28;20095;-63
2023/07/23 02:05:38;;;;;;;10.48;6.90;;;;;;;15.28;91.98;100671.63;5022629;28;20021;-62
2023/07/23 02:08:03;;;;;;;10.27;7.05;;;;;;;15.29;91.93;100667.09;5016475;28;20030;-62
2023/07/23 02:10:28;;;;;;;11.32;7.40;;;;;;;15.30;91.99;100666.06;5018108;28;20482;-63
2023/07/23 02:12:54;;;;;;;12.13;6.88;;;;;;;15.30;91.66;100663.41;5021063;28;20026;-63
2023/07/23 02:15:19;;;;;;;9.82;6.88;;;;;;;15.31;91.92;100652.50;5016813;28;20037;-63
2023/07/23 02:17:44;;;;;;;11.05;7.20;;;;;;;15.31;91.84;100655.16;5018997;28;20120;-63
2023/07/23 02:20:10;;;;;;;11.98;7.25;;;;;;;15.32;91.70;100646.09;5018265;28;20529;-62
2023/07/23 02:22:36;;;;;;;13.15;7.45;;;;;;;15.30;91.53;100637.47;5019123;28;20526;-63
2023/07/23 02:25:01;;;;;;;12.23;7.18;;;;;;;15.30;91.53;100633.97;5016348;28;20030;-63
2023/07/23 02:27:27;;;;;;;13.15;7.38;;;;;;;15.31;91.08;100638.28;5016063;28;20490;-63
2023/07/23 02:29:52;;;;;;;13.60;7.30;;;;;;;15.32;91.20;100629.22;5012855;28;20029;-63
2023/07/23 02:32:17;;;;;;;8.93;7.10;;;;;;;15.33;91.20;100628.22;5015634;28;20558;-63
2023/07/23 02:34:43;;;;;;;12.98;6.57;;;;;;;15.32;90.76;100627.38;5020627;28;20022;-63
2023/07/23 02:37:08;;;;;;;11.77;7.05;;;;;;;15.33;91.00;100626.38;5022952;28;20033;-63
2023/07/23 02:39:33;;;;;;;11.13;7.40;;;;;;;15.33;90.92;100620.19;5018709;28;20659;-63
2023/07/23 02:41:58;;;;;;;9.27;6.95;;;;;;;15.34;90.86;100622.66;5021179;28;20034;-62
2023/07/23 02:44:24;;;;;;;10.18;6.45;;;;;;;15.36;90.47;100614.44;5025059;28;20164;-62
2023/07/23 02:46:49;;;;;;;11.85;7.57;;;;;;;15.35;90.63;100623.50;5022242;28;20030;-63
2023/07/23 02:49:14;;;;;;;9.60;7.18;;;;;;;15.34;90.78;100613.81;5025012;28;20026;-63
2023/07/23 02:51:40;;;;;;;11.52;7.28;;;;;;;15.35;90.68;100620.81;5018894;28;20029;-63
2023/07/23 02:54:05;;;;;;;11.30;7.88;;;;;;;15.33;90.64;100610.31;5020887;28;20053;-62
2023/07/23 02:56:30;;;;;;;9.93;6.88;;;;;;;15.32;90.43;100597.13;5023194;28;20080;-63
2023/07/23 02:58:56;;;;;;;10.73;6.72;;;;;;;15.34;90.56;100601.28;5020720;28;20454;-63
2023/07/23 03:01:21;;;;;;;12.13;6.97;;;;;;;15.35;90.37;100604.75;5022997;28;20029;-63
2023/07/23 03:03:47;;;;;;;13.40;7.00;;;;;;;15.35;90.23;100594.06;5018473;28;20026;-62
2023/07/23 03:06:13;;;;;;;11.77;7.00;;;;;;;15.34;90.08;100590.56;5015651;28;20021;-63
2023/07/23 03:08:38;;;;;;;12.27;6.55;;;;;;;15.37;89.93;100586.66;5022171;28;20041;-62
2023/07/23 03:11:05;;;;;;;11.00;6.45;;;;;;;15.36;89.61;100601.88;5018465;28;20092;-63
2023/07/23 03:13:30;;;;;;;10.55;6.60;;;;;;;15.35;89.34;100597.56;5016555;28;20029;-63
2023/07/23 03:15:55;;;;;;;9.55;6.13;;;;;;;15.36;89.15;100588.50;5018335;28;20026;-62
2023/07/23 03:18:20;;;;;;;9.38;6.25;;;;;;;15.37;88.79;100587.47;5011077;28;20025;-62
2023/07/23 03:20:46;;;;;;;11.15;5.65;;;;;;;15.40;88.19;100583.56;5018465;28;20053;-63
2023/07/23 03:23:11;;;;;;;8.50;5.32;;;;;;;15.43;87.58;100585.81;5019670;28;20017;-62
2023/07/23 03:25:36;;;;;;;8.55;5.18;;;;;;;15.49;86.87;100583.13;5019545;28;20029;-63
2023/07/23 03:28:01;;;;;;;7.60;4.72;;;;;;;15.56;85.66;100588.44;5018154;28;20618;-62
2023/07/23 03:30:27;;;;;;;8.90;5.07;;;;;;;15.65;84.66;100584.56;5017792;28;20025;-62
2023/07/23 03:32:53;;;;;;;7.72;5.10;;;;;;;15.71;84.02;100589.06;5020598;28;20496;-62
2023/07/23 03:35:20;;;;;;;8.63;4.90;;;;;;;15.77;82.99;100584.72;5020917;28;20036;-63
2023/07/23 03:37:45;;;;;;;9.15;4.90;;;;;;;15.82;82.28;100581.41;5023693;28;20203;-62
2023/07/23 03:40:11;;;;;;;8.35;4.75;;;;;;;15.87;81.66;100578.91;5019604;28;20033;-62
2023/07/23 03:42:36;;;;;;;7.70;4.40;;;;;;;15.93;81.02;100580.78;5018359;28;20499;-62
2023/07/23 03:45:01;;;;;;;7.70;4.50;;;;;;;15.95;80.54;100576.03;5020749;28;20021;-62
2023/07/23 03:47:27;;;;;;;11.27;4.78;;;;;;;15.97;80.00;100576.63;5018320;28;20121;-62
2023/07/23 03:49:52;;;;;;;9.25;4.82;;;;;;;15.94;80.00;100575.19;5016861;28;20022;-62
2023/07/23 03:52:17;;;;;;;7.53;4.60;;;;;;;15.96;79.66;100581.16;5022607;28;20372;-62
2023/07/23 03:54:43;;;;;;;8.18;4.60;;;;;;;15.99;79.21;100571.88;5022219;28;20522;-62
2023/07/23 03:57:08;;;;;;;8.43;4.72;;;;;;;16.00;78.87;100576.19;5023611;28;20049;-63
2023/07/23 03:59:41;;;;;;;10.75;4.57;;;;;;;15.96;79.09;100575.81;5020692;28;20470;-63
2023/07/23 04:02:07;;;;;;;8.68;4.60;;;;;;;15.95;79.07;100584.06;5022770;28;20036;-62
2023/07/23 04:04:34;;;;;;;7.22;4.80;;;;;;;15.93;79.09;100581.59;5020042;28;20017;-62
2023/07/23 04:06:59;;;;;;;10.60;4.70;;;;;;;15.92;79.01;100571.09;5021115;28;20029;-62
2023/07/23 04:09:24;;;;;;;8.25;5.00;;;;;;;15.89;79.12;100577.66;5019723;28;20021;-63
2023/07/23 04:11:50;;;;;;;10.25;4.68;;;;;;;15.88;78.98;100580.56;5022924;28;20057;-62
2023/07/23 04:14:15;;;;;;;7.68;4.90;;;;;;;15.86;78.99;100583.44;5020077;28;20021;-62
2023/07/23 04:16:40;;;;;;;10.85;4.53;;;;;;;15.85;79.07;100573.78;5024090;28;20029;-63
2023/07/23 04:19:06;;;;;;;13.48;4.60;;;;;;;15.84;78.92;100588.19;5022633;28;20116;-62
2023/07/23 04:21:31;;;;;;;7.57;4.30;;;;;;;15.84;78.84;100574.81;5024339;28;20079;-62
2023/07/23 04:23:57;;;;;;;10.77;4.53;;;;;;;15.85;78.67;100576.44;5016413;28;20021;-63
2023/07/23 04:26:28;;;;;;;9.23;4.40;;;;;;;15.87;78.51;100581.59;5018986;28;20124;-62
2023/07/23 04:28:53;;;;;;;6.38;4.50;;;;;;;15.88;78.35;100576.03;5020903;28;20510;-62
2023/07/23 04:31:19;;;;;;;9.18;4.82;;;;;;;15.90;78.66;100583.84;5022764;28;20075;-63
2023/07/23 04:33:45;;;;;;;7.88;4.35;;;;;;;15.90;78.31;100583.84;5025622;28;20018;-62
2023/07/23 04:36:12;;;;;;;6.80;4.10;;;;;;;15.89;78.40;100580.34;5015589;28;20029;-62
2023/07/23 04:38:37;;;;;;;11.20;4.55;;;;;;;15.89;78.50;100579.53;5016094;28;20033;-62
2023/07/23 04:41:03;;;;;;;8.70;4.97;;;;;;;15.90;78.35;100590.06;5024209;28;20100;-62
2023/07/23 04:43:28;;;;;;;9.27;4.82;;;;;;;15.93;78.25;100588.81;5017549;28;20029;-62
2023/07/23 04:45:53;;;;;;;7.82;4.20;;;;;;;15.94;77.88;100579.75;5018095;28;20072;-62
2023/07/23 04:48:19;;;;;;;7.53;4.40;;;;;;;15.96;78.02;100580.34;5022149;28;20027;-62
2023/07/23 04:50:44;;;;;;;7.43;4.55;;;;;;;15.99;77.63;100574.56;5023238;28;20029;-62
2023/07/23 04:53:09;;;;;;;8.02;4.65;;;;;;;16.00;77.54;100574.34;5019497;28;20588;-63
2023/07/23 04:55:35;;;;;;;8.93;4.30;;;;;;;16.02;77.38;100574.13;5020538;28;20069;-62
2023/07/23 04:58:00;;;;;;;6.80;4.32;;;;;;;16.02;77.56;100576.81;5019443;28;20053;-62
2023/07/23 05:00:27;;;;;;;8.60;4.55;;;;;;;16.01;77.33;100572.50;5014614;28;20037;-63
2023/07/23 05:02:52;;;;;;;9.25;4.13;;;;;;;16.02;77.35;100568.78;5011936;28;20022;-62
2023/07/23 05:05:17;;;;;;;8.65;4.28;;;;;;;16.04;77.18;100577.41;5018536;28;20036;-63
2023/07/23 05:07:43;;;;;;;14.18;4.43;;;;;;;16.04;77.18;100569.38;5017437;28;20029;-62
2023/07/23 05:10:08;;;;;;;10.02;4.53;;;;;;;16.03;77.47;100573.91;5015081;28;20077;-63
2023/07/23 05:12:34;;;;;;;7.93;4.30;;;;;;;16.04;77.39;100580.09;5010950;28;20060;-62
2023/07/23 05:15:10;;;;;;;8.65;4.40;;;;;;;16.05;77.20;100571.03;5019235;28;20545;-62
2023/07/23 05:17:36;;;;;;;12.00;4.40;;;;;;;16.05;77.23;100573.69;5025082;28;20597;-62
2023/07/23 05:20:02;;;;;;;8.10;4.10;;;;;;;16.05;77.23;100579.06;5019068;28;20050;-63
2023/07/23 05:22:27;;;;;;;10.38;4.30;;;;;;;16.03;77.42;100583.81;5019245;28;20060;-63
2023/07/23 05:24:52;;;;;;;5.45;4.30;;;;;;;16.03;77.20;100579.28;5016301;28;20514;-62
2023/07/23 05:27:17;;;;;;;6.43;4.18;;;;;;;16.01;77.60;100583.22;5019792;28;20037;-63
2023/07/23 05:29:43;;;;;;;6.20;4.15;;;;;;;15.97;78.03;100574.78;5025086;28;20422;-62
2023/07/23 05:32:08;;;;;;;7.88;4.35;;;;;;;15.95;78.48;100578.69;5024026;28;20041;-62
2023/07/23 05:34:33;;;;;;;7.05;4.22;;;;;;;15.93;77.84;100578.91;5022292;28;20031;-63
2023/07/23 05:36:59;;;;;;;10.52;4.90;;;;;;;15.93;78.22;100568.22;5020773;28;20026;-62
2023/07/23 05:39:24;;;;;;;9.23;4.80;;;;;;;15.94;78.16;100575.19;5016321;28;20030;-62
2023/07/23 05:41:50;;;;;;;11.45;4.40;;;;;;;15.92;78.44;100571.09;5021250;28;20113;-62
2023/07/23 05:44:16;;;;;;;11.88;4.55;;;;;;;15.91;78.66;100569.44;5018394;28;20541;-63
2023/07/23 05:46:41;;;;;;;9.27;4.63;;;;;;;15.90;78.52;100574.00;5013678;28;20029;-62
2023/07/23 05:49:07;;;;;;;7.25;5.00;;;;;;;15.91;78.85;100572.13;5017695;28;20029;-62
2023/07/23 05:51:32;;;;;;;12.60;4.85;;;;;;;15.90;79.13;100568.63;5012027;28;20029;-63
2023/07/23 05:53:57;;;;;;;10.55;4.78;;;;;;;15.90;78.85;100567.78;5019315;28;20021;-62
2023/07/23 05:56:23;;;;;;;7.32;4.70;;;;;;;15.91;78.67;100566.78;5021135;28;20033;-62
2023/07/23 05:58:48;;;;;;;8.48;4.72;;;;;;;15.91;78.94;100564.91;5024828;28;20099;-62
2023/07/23 06:01:13;;;;;;;11.27;4.53;;;;;;;15.92;78.48;100566.56;5014064;28;20029;-63
2023/07/23 06:03:38;;;;;;;7.38;4.68;;;;;;;15.92;78.51;100565.75;5018153;28;20025;-62
2023/07/23 06:06:04;;;;;;;6.32;4.40;;;;;;;15.92;78.57;100566.56;5018918;28;20021;-63
2023/07/23 06:08:29;;;;;;;9.10;4.82;;;;;;;15.93;78.65;100564.72;5024909;28;20028;-63
2023/07/23 06:10:54;;;;;;;9.45;4.68;;;;;;;15.91;78.69;100567.59;5024172;28;20076;-62
2023/07/23 06:13:19;;;;;;;8.88;4.50;;;;;;;15.89;78.85;100564.28;5023523;28;20092;-63
2023/07/23 06:15:45;;;;;;;7.22;4.60;;;;;;;15.86;79.16;100572.75;5025176;28;20508;-63
2023/07/23 06:18:10;;;;;;;6.10;4.15;;;;;;;15.84;79.61;100571.31;5016533;28;20028;-63
2023/07/23 06:20:35;;;;;;;7.68;4.70;;;;;;;15.79;79.76;100582.66;5023934;28;20383;-63
2023/07/23 06:23:01;;;;;;;7.15;4.40;;;;;;;15.75;79.80;100568.88;5022627;28;20025;-63
2023/07/23 06:25:26;;;;;;;8.18;4.25;;;;;;;15.70;80.13;100576.72;5021297;28;20025;-63
2023/07/23 06:27:51;;;;;;;7.10;4.43;;;;;;;15.67;80.82;100579.00;5018273;28;20097;-63
2023/07/23 06:30:17;;;;;;;11.93;4.35;;;;;;;15.65;80.81;100573.03;5024536;28;20040;-63
2023/07/23 06:32:42;;;;;;;6.97;4.63;;;;;;;15.63;81.59;100583.13;5020965;28;20131;-63
2023/07/23 06:35:10;;;;;;;5.90;4.47;;;;;;;15.63;81.22;100583.13;5021591;28;20029;-63
2023/07/23 06:37:36;;;;;;;5.90;4.35;;;;;;;15.61;81.63;100583.34;5014309;28;20397;-62
2023/07/23 06:40:02;;;;;;;13.48;4.85;;;;;;;15.60;81.95;100588.88;5021336;28;20021;-63
2023/07/23 06:42:27;;;;;;;7.45;4.55;;;;;;;15.58;82.19;100590.91;5022812;28;20076;-63
2023/07/23 06:44:52;;;;;;;7.32;4.50;;;;;;;15.58;82.81;100594.44;5018371;28;20470;-62
2023/07/23 06:47:19;;;;;;;8.10;4.15;;;;;;;15.59;82.55;100598.75;5020504;28;20091;-62
2023/07/23 06:49:45;;;;;;;8.70;4.53;;;;;;;15.61;82.94;100599.41;5023793;28;20029;-62
2023/07/23 06:52:10;;;;;;;8.73;4.72;;;;;;;15.62;82.94;100611.75;5011395;28;20036;-63
2023/07/23 06:54:40;;;;;;;7.97;4.43;;;;;;;15.55;83.62;100602.84;5020851;28;20026;-63
2023/07/23 06:57:06;;;;;;;6.80;4.75;;;;;;;15.42;84.29;100603.72;5018770;28;20029;-63
2023/07/23 06:59:31;;;;;;;7.22;4.80;;;;;;;15.21;85.34;100608.47;5014856;28;20025;-62
2023/07/23 07:01:56;;;;;;;6.32;4.85;;;;;;;15.01;86.80;100611.13;5014808;28;20410;-63
2023/07/23 07:04:22;;;;;;;7.35;4.95;;;;;;;14.88;88.30;100614.63;5007934;28;20064;-62
2023/07/23 07:06:47;;;;;;;9.98;5.55;;;;;;;14.67;89.57;100607.59;5012380;28;20479;-62
2023/07/23 07:09:12;;;;;;;9.25;5.80;;;;;;;14.50;90.88;100615.19;5012340;28;20029;-62
2023/07/23 07:11:38;;;;;;;8.75;5.65;;;;;;;14.44;91.81;100607.13;5026336;28;20033;-63
2023/07/23 07:14:04;;;;;;;11.48;6.10;;;;;;;14.44;93.44;100618.63;5026394;28;20520;-62
2023/07/23 07:16:29;;;;;;;14.05;5.85;;;;;;;14.46;94.14;100605.94;5021098;28;20045;-62
2023/07/23 07:18:54;;;;;;;13.90;6.28;;;;;;;14.52;94.88;100607.78;5026284;28;20025;-63
2023/07/23 07:21:19;;;;;;;8.95;6.10;;;;;;;14.56;94.65;100605.53;5026412;28;20029;-63
2023/07/23 07:23:45;;;;;;;9.40;6.30;;;;;;;14.57;94.96;100610.66;5022473;28;20030;-63
2023/07/23 07:26:10;;;;;;;8.57;6.18;;;;;;;14.57;94.63;100602.66;5020017;28;20029;-62
2023/07/23 07:28:35;;;;;;;9.30;6.57;;;;;;;14.53;95.38;100605.94;5024033;28;20025;-62
2023/07/23 07:31:01;;;;;;;11.15;6.40;;;;;;;14.53;95.75;100606.75;5027554;28;20042;-62
2023/07/23 07:33:27;;;;;;;12.90;6.55;;;;;;;14.51;96.03;100610.66;5032350;28;20021;-63
2023/07/23 07:35:54;;;;;;;9.43;6.28;;;;;;;14.52;96.82;100609.63;5026186;28;20033;-62
2023/07/23 07:38:19;;;;;;;11.10;7.18;;;;;;;14.53;97.09;100614.78;5019279;28;20083;-62
2023/07/23 07:40:48;;;;;;;12.07;7.00;;;;;;;14.56;97.87;100613.53;5024337;28;20022;-62
2023/07/23 07:43:13;;;;;;;15.18;7.30;;;;;;;14.57;98.03;100608.00;5029555;28;20055;-63
2023/07/23 07:45:38;;;;;;;9.40;6.85;;;;;;;14.58;98.52;100608.81;5019055;28;20029;-62
2023/07/23 07:48:04;;;;;;;11.35;6.80;;;;;;;14.61;98.87;100605.75;5024188;28;20033;-62
2023/07/23 07:50:30;;;;;;;11.65;6.80;;;;;;;14.62;98.90;100607.38;5023213;28;20025;-63
2023/07/23 07:52:55;;;;;;;9.57;6.63;;;;;;;14.67;98.86;100612.13;5025881;28;20110;-63
2023/07/23 07:55:20;;;;;;;10.68;7.00;;;;;;;14.72;99.18;100609.66;5025159;28;20048;-63
2023/07/23 07:57:46;;;;;;;14.13;7.20;;;;;;;14.74;99.06;100603.06;5022136;28;20033;-63
2023/07/23 08:00:11;;;;;;;10.88;7.30;;;;;;;14.81;98.86;100597.75;5023600;28;20108;-63
2023/07/23 08:02:37;;;;;;;13.07;7.30;;;;;;;14.88;99.16;100617.28;5017860;28;20033;-62
2023/07/23 08:05:03;;;;;;;12.13;6.72;;;;;;;14.83;98.92;100601.06;5026067;28;20068;-62
2023/07/23 08:07:30;;;;;;;10.35;6.88;;;;;;;14.82;98.98;100599.41;5020293;28;20044;-63
2023/07/23 08:09:58;;;;;;;11.18;7.35;;;;;;;14.85;99.30;100596.31;5022268;28;20399;-63
2023/07/23 08:12:24;;;;;;;12.38;7.22;;;;;;;14.86;99.49;100597.97;5019117;28;20040;-63
2023/07/23 08:14:52;;;;;;;11.90;6.90;;;;;;;14.88;99.63;100602.06;5027261;28;20017;-63
2023/07/23 08:17:18;;;;;;;15.32;6.95;;;;;;;14.86;99.94;100606.00;5028951;28;20029;-62
2023/07/23 08:19:43;;;;;;;9.27;6.57;;;;;;;14.83;100.00;100601.88;5025746;28;20663;-62
2023/07/23 08:22:09;;;;;;;9.98;6.90;;;;;;;14.83;100.00;100599.19;5025246;28;20068;-62
2023/07/23 08:24:35;;;;;;;11.00;7.40;;;;;;;14.84;100.00;100616.88;5018233;28;20021;-63
2023/07/23 08:27:02;;;;;;;10.25;6.75;;;;;;;14.86;100.00;100606.81;5025731;28;20048;-63
2023/07/23 08:29:29;;;;;;;11.90;7.00;;;;;;;14.88;100.00;100604.75;5017303;28;20453;-63
2023/07/23 08:31:56;;;;;;;9.80;6.80;;;;;;;14.90;100.00;100598.38;5021307;28;20025;-62
2023/07/23 08:34:22;;;;;;;10.27;6.28;;;;;;;14.94;100.00;100600.44;5029848;28;20079;-62
2023/07/23 08:36:48;;;;;;;11.43;6.50;;;;;;;14.90;100.00;100593.03;5017773;28;20021;-63
2023/07/23 08:39:14;;;;;;;11.85;6.40;;;;;;;15.06;100.00;100601.47;5019127;28;20497;-63
2023/07/23 08:42:00;;;;;;;9.88;6.50;;;;;;;15.17;100.00;100606.19;5018911;28;20022;-62
2023/07/23 08:44:50;;;;;;;10.07;5.63;;;;;;;15.21;100.00;100603.13;5024684;28;20048;-62
2023/07/23 08:47:16;;;;;;;9.23;5.47;;;;;;;15.25;100.00;100613.19;5022402;28;20475;-62
2023/07/23 08:49:43;;;;;;;7.82;4.97;;;;;;;15.27;99.87;100600.44;5022476;28;20025;-63
2023/07/23 08:52:12;;;;;;;8.50;5.47;;;;;;;15.28;99.55;100603.94;5025221;28;20393;-63
2023/07/23 08:54:37;;;;;;;;;;;;;;;15.31;99.23;100606.19;5021448;28;20167;-62
2023/07/23 08:57:04;;;;;;;6.65;4.70;;;;;;;15.36;99.21;100606.41;5028998;28;20396;-63
2023/07/23 08:59:31;;;;;;;7.50;5.20;;;;;;;15.38;99.24;100597.13;5016767;28;20418;-63
2023/07/23 09:01:56;;;;;;;7.45;4.38;;;;;;;15.38;99.34;100604.34;5025080;28;20022;-63
2023/07/23 09:04:22;;;;;;;7.68;4.85;;;;;;;15.42;99.05;100606.41;5024353;28;20387;-63
2023/07/23 09:06:48;;;;;;;6.90;4.50;;;;;;;15.45;99.15;100603.31;5017857;28;20025;-63
2023/07/23 09:09:14;;;;;;;6.53;4.38;;;;;;;15.46;98.95;100593.41;5018963;28;20430;-63
2023/07/23 09:11:39;;;;;;;6.93;4.10;;;;;;;15.52;98.83;100622.03;5024771;28;20477;-62
2023/07/23 09:14:15;;;;;;;7.65;4.15;;;;;;;15.55;98.79;100602.84;5022705;28;20025;-63
2023/07/23 09:16:45;;;;;;;5.93;4.25;;;;;;;15.57;98.45;100611.50;5020727;28;20096;-63
2023/07/23 09:19:12;;;;;;;5.72;3.75;;;;;;;15.60;98.70;100604.94;5018552;28;20490;-63
2023/07/23 09:21:39;;;;;;;6.18;4.28;;;;;;;15.61;98.31;100602.09;5022043;28;20491;-62
2023/07/23 09:24:07;;;;;;;5.55;4.13;;;;;;;15.62;98.25;100605.59;5024153;28;20901;-62
2023/07/23 09:26:35;;;;;;;4.72;3.95;;;;;;;15.63;98.44;100608.06;5023664;28;20119;-61
2023/07/23 09:29:00;;;;;;;4.75;3.17;;;;;;;15.63;98.24;100608.06;5019412;28;20026;-60
2023/07/23 09:31:27;;;;;;;5.70;3.90;;;;;;;15.58;98.72;100615.00;5016479;28;20818;-60
2023/07/23 09:33:55;;;;;;;5.07;3.78;;;;;;;15.61;99.27;100611.94;5026725;28;21681;-60
2023/07/23 09:36:21;;;;;;;4.32;3.40;;;;;;;15.58;99.57;100606.97;5020330;28;20029;-61
2023/07/23 09:39:01;;;;;;;6.93;3.92;;;;;;;15.57;100.00;100613.34;5014596;28;20076;-60
2023/07/23 09:41:34;;;;;;;5.40;3.38;;;;;;;15.63;100.00;100612.59;5018575;28;20108;-60
2023/07/23 09:44:04;;;;;;;5.10;3.70;;;;;;;15.65;100.00;100613.19;5017305;28;20029;-61
2023/07/23 09:46:30;;;;;;;5.13;3.20;;;;;;;15.65;100.00;100610.50;5019765;28;20029;-61
2023/07/23 09:48:55;;;;;;;5.00;3.20;;;;;;;15.63;100.00;100613.41;5016261;28;20036;-60
2023/07/23 09:51:21;;;;;;;3.67;3.10;;;;;;;15.54;100.00;100611.91;5018221;28;20029;-60
2023/07/23 09:53:47;;;;;;;5.35;3.30;;;;;;;15.52;100.00;100614.00;5013995;28;20368;-60
2023/07/23 09:56:14;;;;;;;5.72;3.60;;;;;;;15.48;100.00;100618.13;5014360;28;20491;-60
2023/07/23 09:58:41;;;;;;;6.88;3.78;;;;;;;15.48;100.00;100608.22;5009305;28;20030;-60
2023/07/23 10:01:07;;;;;;;5.10;3.70;;;;;;;15.49;100.00;100615.22;5020011;28;20018;-60
2023/07/23 10:03:33;;;;;;;7.15;3.78;;;;;;;15.50;100.00;100610.69;5017146;28;20033;-60
2023/07/23 10:05:59;;;;;;;5.20;3.95;;;;;;;15.52;100.00;100619.34;5021113;28;20562;-60
2023/07/23 10:08:27;;;;;;;6.63;3.80;;;;;;;15.48;100.00;100610.09;5023448;28;20033;-62
2023/07/23 10:10:52;;;;;;;5.60;4.00;;;;;;;15.52;100.00;100623.88;5021146;28;20116;-63
2023/07/23 10:13:17;;;;;;;5.95;4.05;;;;;;;15.53;100.00;100631.69;5016066;28;20113;-63
2023/07/23 10:15:44;;;;;;;4.97;4.03;;;;;;;15.53;100.00;100620.16;5022375;28;20065;-62
2023/07/23 10:18:12;;;;;;;5.97;4.00;;;;;;;15.53;100.00;100631.69;5015844;28;20927;-63
2023/07/23 10:20:38;;;;;;;4.75;4.05;;;;;;;15.54;100.00;100629.84;5020045;28;20029;-60
2023/07/23 10:23:08;;;;;;;4.88;4.25;;;;;;;15.54;100.00;100636.00;5020905;28;20545;-60
2023/07/23 10:25:35;;;;;;;8.60;4.28;;;;;;;15.56;100.00;100636.63;5021870;28;20037;-60
2023/07/23 10:28:03;;;;;;;6.40;3.97;;;;;;;15.57;100.00;100626.75;5021168;28;20056;-60
2023/07/23 10:30:30;;;;;;;6.82;4.20;;;;;;;15.59;100.00;100628.22;5022297;28;20033;-60
2023/07/23 10:33:28;;;;;;;4.93;3.90;;;;;;;15.65;100.00;100623.91;5031061;28;20047;-60
2023/07/23 10:35:53;;;;;;;4.75;3.95;;;;;;;15.67;100.00;100638.72;5019033;28;20029;-60
2023/07/23 10:38:30;;;;;;;5.20;4.35;;;;;;;15.68;100.00;100644.91;5021716;28;20075;-60
2023/07/23 10:40:55;;;;;;;5.45;4.20;;;;;;;15.66;100.00;100634.41;5025364;28;20041;-60
2023/07/23 10:43:21;;;;;;;5.68;4.40;;;;;;;15.64;100.00;100641.00;5018898;28;20030;-60
2023/07/23 10:46:06;;;;;;;7.35;4.10;;;;;;;15.65;100.00;100631.94;5018221;28;20034;-60
2023/07/23 10:48:42;;;;;;;6.57;4.40;;;;;;;15.69;100.00;100631.28;5019036;28;20025;-60
2023/07/23 10:51:08;;;;;;;5.97;4.50;;;;;;;15.74;100.00;100626.13;5020074;28;20021;-60
2023/07/23 10:53:39;;;;;;;5.78;4.55;;;;;;;15.79;100.00;100637.03;5019108;28;20017;-62
2023/07/23 10:56:21;;;;;;;5.75;4.25;;;;;;;15.85;100.00;100626.50;5023340;28;20082;-61
2023/07/23 10:58:47;;;;;;;8.10;4.70;;;;;;;15.91;100.00;100633.72;5018983;28;20481;-61
2023/07/23 11:01:12;;;;;;;5.85;4.70;;;;;;;15.96;100.00;100628.56;5022512;28;20033;-62
2023/07/23 11:03:43;;;;;;;5.15;4.50;;;;;;;16.03;100.00;100626.66;5018310;28;20128;-63
2023/07/23 11:06:24;;;;;;;6.20;4.63;;;;;;;16.11;100.00;100626.44;5027937;28;20065;-63
2023/07/23 11:08:51;;;;;;;5.88;5.10;;;;;;;16.17;100.00;100622.91;5026272;28;20021;-61
2023/07/23 11:11:16;;;;;;;7.07;4.70;;;;;;;16.24;100.00;100621.03;5025142;28;20029;-61
2023/07/23 11:13:42;;;;;;;6.22;4.80;;;;;;;16.37;100.00;100620.13;5021769;28;20041;-61
2023/07/23 11:16:08;;;;;;;7.03;5.45;;;;;;;16.59;100.00;100616.09;5025132;28;20088;-61